Crane, Texas
Current Conditions -  °F | °C
As of 4:53 AM on Friday 28 Nov 2014 (Local Time) from KODO Reporting Station
Clear Clear  
Wind Chill: 39°   Ceiling: Unl
Heat Index: 45°   Visibility: 10mi
Dew Point: 34°   Wind: 13mph
Humidity: 65%   Direction: 200°SSW
Pressure: 30.22"   Gusts: NA
Location:  31.4°N, 102.35°W
Report Text: KODO 281053Z AUTO 20011KT 10SM CLR 07/01 A3022 RMK AO2 SLP210 T00720011
Loading
Personal Weather Stations






























Interactive Weather Map New forecast layout! Learn more

10-Day Weather Forecast

Advertisements
Track Severe Weather on mobile